sensor_id;sensor_type;location;lat;lon;timestamp;temperature;humidity
31527;DHT22;18136;42.236;-73.040;2023-06-14T00:01:18;16.30;99.90
31527;DHT22;18136;42.236;-73.040;2023-06-14T00:03:46;16.20;99.90
31527;DHT22;18136;42.236;-73.040;2023-06-14T00:06:13;16.20;99.90
31527;DHT22;18136;42.236;-73.040;2023-06-14T00:08:39;16.10;99.90
31527;DHT22;18136;42.236;-73.040;2023-06-14T00:11:07;16.10;99.90
31527;DHT22;18136;42.236;-73.040;2023-06-14T00:13:33;16.00;99.90
31527;DHT22;18136;42.236;-73.040;2023-06-14T00:16:00;16.00;99.90
31527;DHT22;18136;42.236;-73.040;2023-06-14T00:18:26;16.00;99.90
31527;DHT22;18136;42.236;-73.040;2023-06-14T00:20:55;15.90;99.90
31527;DHT22;18136;42.236;-73.040;2023-06-14T00:23:21;15.90;99.90
31527;DHT22;18136;42.236;-73.040;2023-06-14T00:25:47;15.90;99.90
31527;DHT22;18136;42.236;-73.040;2023-06-14T00:28:15;15.80;99.90
31527;DHT22;18136;42.236;-73.040;2023-06-14T00:30:41;15.80;99.90
31527;DHT22;18136;42.236;-73.040;2023-06-14T00:33:09;15.70;99.90
31527;DHT22;18136;42.236;-73.040;2023-06-14T00:35:35;15.70;99.90
31527;DHT22;18136;42.236;-73.040;2023-06-14T00:38:02;15.70;99.90
31527;DHT22;18136;42.236;-73.040;2023-06-14T00:40:28;15.60;99.90
31527;DHT22;18136;42.236;-73.040;2023-06-14T00:42:57;15.60;99.90
31527;DHT22;18136;42.236;-73.040;2023-06-14T00:45:23;15.50;99.90
31527;DHT22;18136;42.236;-73.040;2023-06-14T00:47:49;15.50;99.90
31527;DHT22;18136;42.236;-73.040;2023-06-14T00:50:20;15.50;99.90
31527;DHT22;18136;42.236;-73.040;2023-06-14T00:52:47;15.40;99.90
31527;DHT22;18136;42.236;-73.040;2023-06-14T00:55:15;15.40;99.90
31527;DHT22;18136;42.236;-73.040;2023-06-14T00:57:41;15.40;99.90
31527;DHT22;18136;42.236;-73.040;2023-06-14T01:00:08;15.30;99.90
31527;DHT22;18136;42.236;-73.040;2023-06-14T01:02:37;15.30;99.90
31527;DHT22;18136;42.236;-73.040;2023-06-14T01:05:03;15.30;99.90
31527;DHT22;18136;42.236;-73.040;2023-06-14T01:07:55;15.30;99.90
31527;DHT22;18136;42.236;-73.040;2023-06-14T01:10:53;15.20;99.90
31527;DHT22;18136;42.236;-73.040;2023-06-14T01:13:38;15.20;99.90
31527;DHT22;18136;42.236;-73.040;2023-06-14T01:16:05;15.10;99.90
31527;DHT22;18136;42.236;-73.040;2023-06-14T01:18:34;15.10;99.90
31527;DHT22;18136;42.236;-73.040;2023-06-14T01:21:00;15.10;99.90
31527;DHT22;18136;42.236;-73.040;2023-06-14T01:23:32;15.00;99.90
31527;DHT22;18136;42.236;-73.040;2023-06-14T01:25:59;15.00;99.90
31527;DHT22;18136;42.236;-73.040;2023-06-14T01:28:28;15.00;99.90
31527;DHT22;18136;42.236;-73.040;2023-06-14T01:31:00;14.90;99.90
31527;DHT22;18136;42.236;-73.040;2023-06-14T01:33:31;14.90;99.90
31527;DHT22;18136;42.236;-73.040;2023-06-14T01:35:58;14.90;99.90
31527;DHT22;18136;42.236;-73.040;2023-06-14T01:38:26;14.90;99.90
31527;DHT22;18136;42.236;-73.040;2023-06-14T01:40:54;14.90;99.90
31527;DHT22;18136;42.236;-73.040;2023-06-14T01:43:21;14.80;99.90
31527;DHT22;18136;42.236;-73.040;2023-06-14T01:45:48;14.80;99.90
31527;DHT22;18136;42.236;-73.040;2023-06-14T01:48:17;14.80;99.90
31527;DHT22;18136;42.236;-73.040;2023-06-14T01:50:43;14.70;99.90
31527;DHT22;18136;42.236;-73.040;2023-06-14T01:53:10;14.70;99.90
31527;DHT22;18136;42.236;-73.040;2023-06-14T01:55:37;14.70;99.90
31527;DHT22;18136;42.236;-73.040;2023-06-14T01:58:04;14.70;99.90
31527;DHT22;18136;42.236;-73.040;2023-06-14T02:00:31;14.70;99.90
31527;DHT22;18136;42.236;-73.040;2023-06-14T02:02:57;14.60;99.90
31527;DHT22;18136;42.236;-73.040;2023-06-14T02:05:24;14.60;99.90
31527;DHT22;18136;42.236;-73.040;2023-06-14T02:07:52;14.60;99.90
31527;DHT22;18136;42.236;-73.040;2023-06-14T02:10:21;14.60;99.90
31527;DHT22;18136;42.236;-73.040;2023-06-14T02:12:47;14.60;99.90
31527;DHT22;18136;42.236;-73.040;2023-06-14T02:15:13;14.50;99.90
31527;DHT22;18136;42.236;-73.040;2023-06-14T02:17:45;14.50;99.90
31527;DHT22;18136;42.236;-73.040;2023-06-14T02:20:13;14.50;99.90
31527;DHT22;18136;42.236;-73.040;2023-06-14T02:22:39;14.50;99.90
31527;DHT22;18136;42.236;-73.040;2023-06-14T02:25:05;14.40;99.90
31527;DHT22;18136;42.236;-73.040;2023-06-14T02:27:32;14.40;99.90
31527;DHT22;18136;42.236;-73.040;2023-06-14T02:29:58;14.50;99.90
31527;DHT22;18136;42.236;-73.040;2023-06-14T02:32:24;14.40;99.90
31527;DHT22;18136;42.236;-73.040;2023-06-14T02:34:52;14.40;99.90
31527;DHT22;18136;42.236;-73.040;2023-06-14T02:37:19;14.40;99.90
31527;DHT22;18136;42.236;-73.040;2023-06-14T02:39:45;14.40;99.90
31527;DHT22;18136;42.236;-73.040;2023-06-14T02:42:11;14.40;99.90
31527;DHT22;18136;42.236;-73.040;2023-06-14T02:44:37;14.30;99.90
31527;DHT22;18136;42.236;-73.040;2023-06-14T02:47:04;14.30;99.90
31527;DHT22;18136;42.236;-73.040;2023-06-14T02:49:30;14.30;99.90
31527;DHT22;18136;42.236;-73.040;2023-06-14T02:51:56;14.30;99.90
31527;DHT22;18136;42.236;-73.040;2023-06-14T02:54:22;14.20;99.90
31527;DHT22;18136;42.236;-73.040;2023-06-14T02:56:48;14.30;99.90
31527;DHT22;18136;42.236;-73.040;2023-06-14T02:59:15;14.20;99.90
31527;DHT22;18136;42.236;-73.040;2023-06-14T03:01:42;14.20;99.90
31527;DHT22;18136;42.236;-73.040;2023-06-14T03:04:08;14.20;99.90
31527;DHT22;18136;42.236;-73.040;2023-06-14T03:06:35;14.20;99.90
31527;DHT22;18136;42.236;-73.040;2023-06-14T03:09:02;14.20;99.90
31527;DHT22;18136;42.236;-73.040;2023-06-14T03:11:31;14.20;99.90
31527;DHT22;18136;42.236;-73.040;2023-06-14T03:13:58;14.10;99.90
31527;DHT22;18136;42.236;-73.040;2023-06-14T03:16:24;14.10;99.90
31527;DHT22;18136;42.236;-73.040;2023-06-14T03:18:51;14.10;99.90
31527;DHT22;18136;42.236;-73.040;2023-06-14T03:21:18;14.10;99.90
31527;DHT22;18136;42.236;-73.040;2023-06-14T03:23:46;14.10;99.90
31527;DHT22;18136;42.236;-73.040;2023-06-14T03:26:12;14.10;99.90
31527;DHT22;18136;42.236;-73.040;2023-06-14T03:28:47;14.00;99.90
31527;DHT22;18136;42.236;-73.040;2023-06-14T03:31:14;14.00;99.90
31527;DHT22;18136;42.236;-73.040;2023-06-14T03:33:40;14.00;99.90
31527;DHT22;18136;42.236;-73.040;2023-06-14T03:36:06;13.90;99.90
31527;DHT22;18136;42.236;-73.040;2023-06-14T03:38:33;13.90;99.90
31527;DHT22;18136;42.236;-73.040;2023-06-14T03:40:59;13.90;99.90
31527;DHT22;18136;42.236;-73.040;2023-06-14T03:43:25;13.90;99.90
31527;DHT22;18136;42.236;-73.040;2023-06-14T03:45:51;13.90;99.90
31527;DHT22;18136;42.236;-73.040;2023-06-14T03:48:17;13.90;99.90
31527;DHT22;18136;42.236;-73.040;2023-06-14T03:50:43;13.90;99.90
31527;DHT22;18136;42.236;-73.040;2023-06-14T03:53:10;13.80;99.90
31527;DHT22;18136;42.236;-73.040;2023-06-14T03:55:36;13.80;99.90
31527;DHT22;18136;42.236;-73.040;2023-06-14T03:58:03;13.70;99.90
31527;DHT22;18136;42.236;-73.040;2023-06-14T04:00:29;13.70;99.90
31527;DHT22;18136;42.236;-73.040;2023-06-14T04:02:55;13.60;99.90
31527;DHT22;18136;42.236;-73.040;2023-06-14T04:05:21;13.60;99.90
31527;DHT22;18136;42.236;-73.040;2023-06-14T04:07:52;13.60;99.90
31527;DHT22;18136;42.236;-73.040;2023-06-14T04:10:21;13.50;99.90
31527;DHT22;18136;42.236;-73.040;2023-06-14T04:12:47;13.50;99.90
31527;DHT22;18136;42.236;-73.040;2023-06-14T04:15:14;13.40;99.90
31527;DHT22;18136;42.236;-73.040;2023-06-14T04:17:40;13.30;99.90
31527;DHT22;18136;42.236;-73.040;2023-06-14T04:20:07;13.30;99.90
31527;DHT22;18136;42.236;-73.040;2023-06-14T04:22:35;13.20;99.90
31527;DHT22;18136;42.236;-73.040;2023-06-14T04:25:02;13.20;99.90
31527;DHT22;18136;42.236;-73.040;2023-06-14T04:27:29;13.20;99.90
31527;DHT22;18136;42.236;-73.040;2023-06-14T04:29:57;13.10;99.90
31527;DHT22;18136;42.236;-73.040;2023-06-14T04:32:24;13.20;99.90
31527;DHT22;18136;42.236;-73.040;2023-06-14T04:34:55;13.10;99.90
31527;DHT22;18136;42.236;-73.040;2023-06-14T04:37:22;13.10;99.90
31527;DHT22;18136;42.236;-73.040;2023-06-14T04:39:49;13.00;99.90
31527;DHT22;18136;42.236;-73.040;2023-06-14T04:42:16;13.00;99.90
31527;DHT22;18136;42.236;-73.040;2023-06-14T04:44:43;12.90;99.90
31527;DHT22;18136;42.236;-73.040;2023-06-14T04:47:13;12.90;99.90
31527;DHT22;18136;42.236;-73.040;2023-06-14T04:49:40;12.90;99.90
31527;DHT22;18136;42.236;-73.040;2023-06-14T04:52:07;12.90;99.90
31527;DHT22;18136;42.236;-73.040;2023-06-14T04:54:36;12.90;99.90
31527;DHT22;18136;42.236;-73.040;2023-06-14T04:57:10;12.80;99.90
31527;DHT22;18136;42.236;-73.040;2023-06-14T04:59:43;12.80;99.90
31527;DHT22;18136;42.236;-73.040;2023-06-14T05:02:10;12.80;99.90
31527;DHT22;18136;42.236;-73.040;2023-06-14T05:04:37;12.70;99.90
31527;DHT22;18136;42.236;-73.040;2023-06-14T05:07:09;12.70;99.90
31527;DHT22;18136;42.236;-73.040;2023-06-14T05:09:36;12.70;99.90
31527;DHT22;18136;42.236;-73.040;2023-06-14T05:12:03;12.70;99.90
31527;DHT22;18136;42.236;-73.040;2023-06-14T05:14:29;12.60;99.90
31527;DHT22;18136;42.236;-73.040;2023-06-14T05:16:55;12.60;99.90
31527;DHT22;18136;42.236;-73.040;2023-06-14T05:19:21;12.50;99.90
31527;DHT22;18136;42.236;-73.040;2023-06-14T05:21:47;12.50;99.90
31527;DHT22;18136;42.236;-73.040;2023-06-14T05:24:14;12.50;99.90
31527;DHT22;18136;42.236;-73.040;2023-06-14T05:26:40;12.40;99.90
31527;DHT22;18136;42.236;-73.040;2023-06-14T05:29:06;12.40;99.90
31527;DHT22;18136;42.236;-73.040;2023-06-14T05:31:32;12.40;99.90
31527;DHT22;18136;42.236;-73.040;2023-06-14T05:33:58;12.30;99.90
31527;DHT22;18136;42.236;-73.040;2023-06-14T05:36:25;12.30;99.90
31527;DHT22;18136;42.236;-73.040;2023-06-14T05:38:54;12.30;99.90
31527;DHT22;18136;42.236;-73.040;2023-06-14T05:41:29;12.30;99.90
31527;DHT22;18136;42.236;-73.040;2023-06-14T05:43:55;12.20;99.90
31527;DHT22;18136;42.236;-73.040;2023-06-14T05:46:22;12.20;99.90
31527;DHT22;18136;42.236;-73.040;2023-06-14T05:48:53;12.20;99.90
31527;DHT22;18136;42.236;-73.040;2023-06-14T05:51:19;12.10;99.90
31527;DHT22;18136;42.236;-73.040;2023-06-14T05:53:46;12.10;99.90
31527;DHT22;18136;42.236;-73.040;2023-06-14T05:56:13;12.10;99.90
31527;DHT22;18136;42.236;-73.040;2023-06-14T05:58:40;12.10;99.90
31527;DHT22;18136;42.236;-73.040;2023-06-14T06:01:06;12.10;99.90
31527;DHT22;18136;42.236;-73.040;2023-06-14T06:03:32;12.00;99.90
31527;DHT22;18136;42.236;-73.040;2023-06-14T06:05:59;12.00;99.90
31527;DHT22;18136;42.236;-73.040;2023-06-14T06:08:25;12.00;99.90
31527;DHT22;18136;42.236;-73.040;2023-06-14T06:10:51;12.00;99.90
31527;DHT22;18136;42.236;-73.040;2023-06-14T06:13:18;12.00;99.90
31527;DHT22;18136;42.236;-73.040;2023-06-14T06:15:45;12.00;99.90
31527;DHT22;18136;42.236;-73.040;2023-06-14T06:18:12;12.00;99.90
31527;DHT22;18136;42.236;-73.040;2023-06-14T06:20:38;12.00;99.90
31527;DHT22;18136;42.236;-73.040;2023-06-14T06:23:04;12.00;99.90
31527;DHT22;18136;42.236;-73.040;2023-06-14T06:25:30;12.00;99.90
31527;DHT22;18136;42.236;-73.040;2023-06-14T06:27:57;12.00;99.90
31527;DHT22;18136;42.236;-73.040;2023-06-14T06:30:24;12.00;99.90
31527;DHT22;18136;42.236;-73.040;2023-06-14T06:32:51;12.00;99.90
31527;DHT22;18136;42.236;-73.040;2023-06-14T06:35:17;11.90;99.90
31527;DHT22;18136;42.236;-73.040;2023-06-14T06:37:43;11.90;99.90
31527;DHT22;18136;42.236;-73.040;2023-06-14T06:40:10;11.90;99.90
31527;DHT22;18136;42.236;-73.040;2023-06-14T06:42:36;11.90;99.90
31527;DHT22;18136;42.236;-73.040;2023-06-14T06:45:02;11.90;99.90
31527;DHT22;18136;42.236;-73.040;2023-06-14T06:47:28;11.80;99.90
31527;DHT22;18136;42.236;-73.040;2023-06-14T06:49:54;11.80;99.90
31527;DHT22;18136;42.236;-73.040;2023-06-14T06:52:20;11.80;99.90
31527;DHT22;18136;42.236;-73.040;2023-06-14T06:54:46;11.70;99.90
31527;DHT22;18136;42.236;-73.040;2023-06-14T06:57:12;11.70;99.90
31527;DHT22;18136;42.236;-73.040;2023-06-14T06:59:39;11.70;99.90
31527;DHT22;18136;42.236;-73.040;2023-06-14T07:02:06;11.70;99.90
31527;DHT22;18136;42.236;-73.040;2023-06-14T07:04:32;11.70;99.90
31527;DHT22;18136;42.236;-73.040;2023-06-14T07:06:58;11.70;99.90
31527;DHT22;18136;42.236;-73.040;2023-06-14T07:09:24;11.70;99.90
31527;DHT22;18136;42.236;-73.040;2023-06-14T07:11:51;11.60;99.90
31527;DHT22;18136;42.236;-73.040;2023-06-14T07:14:17;11.60;99.90
31527;DHT22;18136;42.236;-73.040;2023-06-14T07:16:43;11.60;99.90
31527;DHT22;18136;42.236;-73.040;2023-06-14T07:19:10;11.50;99.90
31527;DHT22;18136;42.236;-73.040;2023-06-14T07:21:36;11.50;99.90
31527;DHT22;18136;42.236;-73.040;2023-06-14T07:24:05;11.50;99.90
31527;DHT22;18136;42.236;-73.040;2023-06-14T07:26:32;11.50;99.90
31527;DHT22;18136;42.236;-73.040;2023-06-14T07:28:58;11.40;99.90
31527;DHT22;18136;42.236;-73.040;2023-06-14T07:31:24;11.50;99.90
31527;DHT22;18136;42.236;-73.040;2023-06-14T07:33:51;11.40;99.90
31527;DHT22;18136;42.236;-73.040;2023-06-14T07:36:16;11.40;99.90
31527;DHT22;18136;42.236;-73.040;2023-06-14T07:38:43;11.40;99.90
31527;DHT22;18136;42.236;-73.040;2023-06-14T07:41:09;11.30;99.90
31527;DHT22;18136;42.236;-73.040;2023-06-14T07:43:36;11.30;99.90
31527;DHT22;18136;42.236;-73.040;2023-06-14T07:46:02;11.30;99.90
31527;DHT22;18136;42.236;-73.040;2023-06-14T07:48:28;11.30;99.90
31527;DHT22;18136;42.236;-73.040;2023-06-14T07:50:54;11.30;99.90
31527;DHT22;18136;42.236;-73.040;2023-06-14T07:53:21;11.20;99.90
31527;DHT22;18136;42.236;-73.040;2023-06-14T07:55:47;11.30;99.90
31527;DHT22;18136;42.236;-73.040;2023-06-14T07:58:14;11.30;99.90
31527;DHT22;18136;42.236;-73.040;2023-06-14T08:00:40;11.20;99.90
31527;DHT22;18136;42.236;-73.040;2023-06-14T08:03:06;11.20;99.90
31527;DHT22;18136;42.236;-73.040;2023-06-14T08:05:33;11.10;99.90
31527;DHT22;18136;42.236;-73.040;2023-06-14T08:08:00;11.10;99.90
31527;DHT22;18136;42.236;-73.040;2023-06-14T08:10:27;11.10;99.90
31527;DHT22;18136;42.236;-73.040;2023-06-14T08:12:53;11.20;99.90
31527;DHT22;18136;42.236;-73.040;2023-06-14T08:15:19;11.10;99.90
31527;DHT22;18136;42.236;-73.040;2023-06-14T08:17:46;11.10;99.90
31527;DHT22;18136;42.236;-73.040;2023-06-14T08:20:13;11.10;99.90
31527;DHT22;18136;42.236;-73.040;2023-06-14T08:22:42;11.00;99.90
31527;DHT22;18136;42.236;-73.040;2023-06-14T08:25:09;11.00;99.90
31527;DHT22;18136;42.236;-73.040;2023-06-14T08:27:37;11.00;99.90
31527;DHT22;18136;42.236;-73.040;2023-06-14T08:30:04;11.00;99.90
31527;DHT22;18136;42.236;-73.040;2023-06-14T08:32:30;10.90;99.90
31527;DHT22;18136;42.236;-73.040;2023-06-14T08:34:56;10.90;99.90
31527;DHT22;18136;42.236;-73.040;2023-06-14T08:37:22;10.90;99.90
31527;DHT22;18136;42.236;-73.040;2023-06-14T08:39:48;10.90;99.90
31527;DHT22;18136;42.236;-73.040;2023-06-14T08:42:14;10.90;99.90
31527;DHT22;18136;42.236;-73.040;2023-06-14T08:44:41;10.90;99.90
31527;DHT22;18136;42.236;-73.040;2023-06-14T08:47:07;10.90;99.90
31527;DHT22;18136;42.236;-73.040;2023-06-14T08:49:38;10.80;99.90
31527;DHT22;18136;42.236;-73.040;2023-06-14T08:52:08;10.80;99.90
31527;DHT22;18136;42.236;-73.040;2023-06-14T08:54:36;10.80;99.90
31527;DHT22;18136;42.236;-73.040;2023-06-14T08:57:11;10.80;99.90
31527;DHT22;18136;42.236;-73.040;2023-06-14T08:59:46;10.80;99.90
31527;DHT22;18136;42.236;-73.040;2023-06-14T09:02:15;10.80;99.90
31527;DHT22;18136;42.236;-73.040;2023-06-14T09:04:43;10.90;99.90
31527;DHT22;18136;42.236;-73.040;2023-06-14T09:07:11;10.80;99.90
31527;DHT22;18136;42.236;-73.040;2023-06-14T09:09:41;10.70;99.90
31527;DHT22;18136;42.236;-73.040;2023-06-14T09:12:11;10.70;99.90
31527;DHT22;18136;42.236;-73.040;2023-06-14T09:14:38;10.70;99.90
31527;DHT22;18136;42.236;-73.040;2023-06-14T09:17:06;10.70;99.90
31527;DHT22;18136;42.236;-73.040;2023-06-14T09:19:34;10.70;99.90
31527;DHT22;18136;42.236;-73.040;2023-06-14T09:22:03;10.70;99.90
31527;DHT22;18136;42.236;-73.040;2023-06-14T09:24:29;10.70;99.90
31527;DHT22;18136;42.236;-73.040;2023-06-14T09:26:55;10.80;99.90
31527;DHT22;18136;42.236;-73.040;2023-06-14T09:29:21;10.70;99.90
31527;DHT22;18136;42.236;-73.040;2023-06-14T09:31:47;10.60;99.90
31527;DHT22;18136;42.236;-73.040;2023-06-14T09:34:13;10.60;99.90
31527;DHT22;18136;42.236;-73.040;2023-06-14T09:36:42;10.60;99.90
31527;DHT22;18136;42.236;-73.040;2023-06-14T09:39:08;10.60;99.90
31527;DHT22;18136;42.236;-73.040;2023-06-14T09:41:41;10.60;99.90
31527;DHT22;18136;42.236;-73.040;2023-06-14T09:44:10;10.60;99.90
31527;DHT22;18136;42.236;-73.040;2023-06-14T09:46:38;10.60;99.90
31527;DHT22;18136;42.236;-73.040;2023-06-14T09:49:05;10.50;99.90
31527;DHT22;18136;42.236;-73.040;2023-06-14T09:51:32;10.60;99.90
31527;DHT22;18136;42.236;-73.040;2023-06-14T09:54:03;10.50;99.90
31527;DHT22;18136;42.236;-73.040;2023-06-14T09:56:37;10.60;99.90
31527;DHT22;18136;42.236;-73.040;2023-06-14T09:59:05;10.60;99.90
31527;DHT22;18136;42.236;-73.040;2023-06-14T10:01:34;10.70;99.90
31527;DHT22;18136;42.236;-73.040;2023-06-14T10:04:05;10.60;99.90
31527;DHT22;18136;42.236;-73.040;2023-06-14T10:06:34;10.60;99.90
31527;DHT22;18136;42.236;-73.040;2023-06-14T10:09:04;10.60;99.90
31527;DHT22;18136;42.236;-73.040;2023-06-14T10:11:31;10.60;99.90
31527;DHT22;18136;42.236;-73.040;2023-06-14T10:13:58;10.60;99.90
31527;DHT22;18136;42.236;-73.040;2023-06-14T10:16:31;10.70;99.90
31527;DHT22;18136;42.236;-73.040;2023-06-14T10:19:14;10.70;99.90
31527;DHT22;18136;42.236;-73.040;2023-06-14T10:22:06;10.70;99.90
31527;DHT22;18136;42.236;-73.040;2023-06-14T10:24:45;10.70;99.90
31527;DHT22;18136;42.236;-73.040;2023-06-14T10:27:14;10.70;99.90
31527;DHT22;18136;42.236;-73.040;2023-06-14T10:32:24;10.80;99.90
31527;DHT22;18136;42.236;-73.040;2023-06-14T10:35:06;10.90;99.90
31527;DHT22;18136;42.236;-73.040;2023-06-14T10:37:33;10.90;99.90
31527;DHT22;18136;42.236;-73.040;2023-06-14T10:39:59;10.90;99.90
31527;DHT22;18136;42.236;-73.040;2023-06-14T10:42:32;11.00;99.90
31527;DHT22;18136;42.236;-73.040;2023-06-14T10:44:58;11.00;99.90
31527;DHT22;18136;42.236;-73.040;2023-06-14T10:47:34;11.00;99.90
31527;DHT22;18136;42.236;-73.040;2023-06-14T10:50:08;11.10;99.90
31527;DHT22;18136;42.236;-73.040;2023-06-14T10:52:43;11.10;99.90
31527;DHT22;18136;42.236;-73.040;2023-06-14T10:57:43;11.20;99.90
31527;DHT22;18136;42.236;-73.040;2023-06-14T11:00:12;11.20;99.90
31527;DHT22;18136;42.236;-73.040;2023-06-14T11:08:39;11.40;99.90
31527;DHT22;18136;42.236;-73.040;2023-06-14T11:11:07;11.50;99.90
31527;DHT22;18136;42.236;-73.040;2023-06-14T11:13:36;11.50;99.90
31527;DHT22;18136;42.236;-73.040;2023-06-14T11:16:14;11.60;99.90
31527;DHT22;18136;42.236;-73.040;2023-06-14T11:18:41;11.70;99.90
31527;DHT22;18136;42.236;-73.040;2023-06-14T11:21:07;11.70;99.90
31527;DHT22;18136;42.236;-73.040;2023-06-14T11:23:35;11.80;99.90
31527;DHT22;18136;42.236;-73.040;2023-06-14T11:26:01;11.80;99.90
31527;DHT22;18136;42.236;-73.040;2023-06-14T11:28:38;11.90;99.90
31527;DHT22;18136;42.236;-73.040;2023-06-14T11:31:06;12.00;99.90
31527;DHT22;18136;42.236;-73.040;2023-06-14T11:33:32;12.00;99.90
31527;DHT22;18136;42.236;-73.040;2023-06-14T11:36:01;12.00;99.90
31527;DHT22;18136;42.236;-73.040;2023-06-14T11:38:27;12.10;99.90
31527;DHT22;18136;42.236;-73.040;2023-06-14T11:40:53;12.20;99.90
31527;DHT22;18136;42.236;-73.040;2023-06-14T11:43:19;12.30;99.90
31527;DHT22;18136;42.236;-73.040;2023-06-14T11:45:48;12.30;99.90
31527;DHT22;18136;42.236;-73.040;2023-06-14T11:48:15;12.40;99.90
31527;DHT22;18136;42.236;-73.040;2023-06-14T11:50:41;12.50;99.90
31527;DHT22;18136;42.236;-73.040;2023-06-14T11:53:07;12.70;99.90
31527;DHT22;18136;42.236;-73.040;2023-06-14T11:55:42;12.70;99.90
31527;DHT22;18136;42.236;-73.040;2023-06-14T11:58:10;12.80;99.90
31527;DHT22;18136;42.236;-73.040;2023-06-14T12:00:37;12.90;99.90
31527;DHT22;18136;42.236;-73.040;2023-06-14T12:03:03;13.00;99.90
31527;DHT22;18136;42.236;-73.040;2023-06-14T12:05:29;13.10;99.90
31527;DHT22;18136;42.236;-73.040;2023-06-14T12:08:00;13.20;99.90
31527;DHT22;18136;42.236;-73.040;2023-06-14T12:10:27;13.30;99.90
31527;DHT22;18136;42.236;-73.040;2023-06-14T12:12:59;13.50;99.90
31527;DHT22;18136;42.236;-73.040;2023-06-14T12:15:28;13.60;99.90
31527;DHT22;18136;42.236;-73.040;2023-06-14T12:18:00;13.70;99.90
31527;DHT22;18136;42.236;-73.040;2023-06-14T12:20:30;13.80;99.90
31527;DHT22;18136;42.236;-73.040;2023-06-14T12:23:00;13.90;99.90
31527;DHT22;18136;42.236;-73.040;2023-06-14T12:25:32;14.00;99.90
31527;DHT22;18136;42.236;-73.040;2023-06-14T12:28:04;14.10;99.90
31527;DHT22;18136;42.236;-73.040;2023-06-14T12:30:31;14.10;99.90
31527;DHT22;18136;42.236;-73.040;2023-06-14T12:32:57;14.20;99.90
31527;DHT22;18136;42.236;-73.040;2023-06-14T12:35:23;14.20;99.90
31527;DHT22;18136;42.236;-73.040;2023-06-14T12:37:49;14.40;99.90
31527;DHT22;18136;42.236;-73.040;2023-06-14T12:40:15;14.50;99.90
31527;DHT22;18136;42.236;-73.040;2023-06-14T12:42:42;14.50;99.90
31527;DHT22;18136;42.236;-73.040;2023-06-14T12:45:08;14.70;99.90
31527;DHT22;18136;42.236;-73.040;2023-06-14T12:47:35;14.90;99.90
31527;DHT22;18136;42.236;-73.040;2023-06-14T12:50:01;15.00;99.90
31527;DHT22;18136;42.236;-73.040;2023-06-14T12:52:28;15.10;99.90
31527;DHT22;18136;42.236;-73.040;2023-06-14T12:54:54;15.20;99.90
31527;DHT22;18136;42.236;-73.040;2023-06-14T12:57:20;15.40;99.90
31527;DHT22;18136;42.236;-73.040;2023-06-14T12:59:46;15.60;99.90
31527;DHT22;18136;42.236;-73.040;2023-06-14T13:02:17;15.70;99.90
31527;DHT22;18136;42.236;-73.040;2023-06-14T13:04:43;15.90;99.90
31527;DHT22;18136;42.236;-73.040;2023-06-14T13:07:10;16.10;99.90
31527;DHT22;18136;42.236;-73.040;2023-06-14T13:09:41;16.30;99.90
31527;DHT22;18136;42.236;-73.040;2023-06-14T13:12:08;16.50;99.90
31527;DHT22;18136;42.236;-73.040;2023-06-14T13:14:34;16.60;99.90
31527;DHT22;18136;42.236;-73.040;2023-06-14T13:17:00;16.70;99.90
31527;DHT22;18136;42.236;-73.040;2023-06-14T13:19:26;16.80;99.90
31527;DHT22;18136;42.236;-73.040;2023-06-14T13:21:53;16.90;99.90
31527;DHT22;18136;42.236;-73.040;2023-06-14T13:24:19;17.00;99.90
31527;DHT22;18136;42.236;-73.040;2023-06-14T13:26:45;17.20;99.90
31527;DHT22;18136;42.236;-73.040;2023-06-14T13:29:11;17.30;99.90
31527;DHT22;18136;42.236;-73.040;2023-06-14T13:31:37;17.50;99.90
31527;DHT22;18136;42.236;-73.040;2023-06-14T13:34:03;17.60;99.90
31527;DHT22;18136;42.236;-73.040;2023-06-14T13:36:30;17.80;99.90
31527;DHT22;18136;42.236;-73.040;2023-06-14T13:38:56;18.00;99.90
31527;DHT22;18136;42.236;-73.040;2023-06-14T13:41:27;18.10;99.90
31527;DHT22;18136;42.236;-73.040;2023-06-14T13:43:59;18.10;99.90
31527;DHT22;18136;42.236;-73.040;2023-06-14T13:46:26;18.30;99.90
31527;DHT22;18136;42.236;-73.040;2023-06-14T13:48:52;18.40;99.90
31527;DHT22;18136;42.236;-73.040;2023-06-14T13:51:18;18.50;99.90
31527;DHT22;18136;42.236;-73.040;2023-06-14T13:53:48;18.70;99.90
31527;DHT22;18136;42.236;-73.040;2023-06-14T13:56:15;18.90;99.90
31527;DHT22;18136;42.236;-73.040;2023-06-14T13:58:41;19.00;99.90
31527;DHT22;18136;42.236;-73.040;2023-06-14T14:01:08;19.10;99.90
31527;DHT22;18136;42.236;-73.040;2023-06-14T14:03:35;19.20;99.90
31527;DHT22;18136;42.236;-73.040;2023-06-14T14:06:01;19.30;99.90
31527;DHT22;18136;42.236;-73.040;2023-06-14T14:08:28;19.50;99.90
31527;DHT22;18136;42.236;-73.040;2023-06-14T14:10:54;19.60;99.90
31527;DHT22;18136;42.236;-73.040;2023-06-14T14:13:21;19.60;99.90
31527;DHT22;18136;42.236;-73.040;2023-06-14T14:15:48;19.60;99.90
31527;DHT22;18136;42.236;-73.040;2023-06-14T14:18:15;19.60;99.90
31527;DHT22;18136;42.236;-73.040;2023-06-14T14:20:43;19.50;99.90
31527;DHT22;18136;42.236;-73.040;2023-06-14T14:23:09;19.40;99.90
31527;DHT22;18136;42.236;-73.040;2023-06-14T14:25:35;19.40;99.90
31527;DHT22;18136;42.236;-73.040;2023-06-14T14:28:01;19.40;99.90
31527;DHT22;18136;42.236;-73.040;2023-06-14T14:30:27;19.30;99.90
31527;DHT22;18136;42.236;-73.040;2023-06-14T14:32:53;19.20;99.90
31527;DHT22;18136;42.236;-73.040;2023-06-14T14:35:20;19.10;99.90
31527;DHT22;18136;42.236;-73.040;2023-06-14T14:37:46;19.10;99.90
31527;DHT22;18136;42.236;-73.040;2023-06-14T14:40:12;19.10;99.90
31527;DHT22;18136;42.236;-73.040;2023-06-14T14:42:38;19.00;99.90
31527;DHT22;18136;42.236;-73.040;2023-06-14T14:45:05;19.00;99.90
31527;DHT22;18136;42.236;-73.040;2023-06-14T14:47:31;19.00;99.90
31527;DHT22;18136;42.236;-73.040;2023-06-14T14:49:57;19.00;99.90
31527;DHT22;18136;42.236;-73.040;2023-06-14T14:52:23;19.00;99.90
31527;DHT22;18136;42.236;-73.040;2023-06-14T14:54:50;19.10;99.90
31527;DHT22;18136;42.236;-73.040;2023-06-14T14:57:17;19.20;99.90
31527;DHT22;18136;42.236;-73.040;2023-06-14T14:59:43;19.20;99.90
31527;DHT22;18136;42.236;-73.040;2023-06-14T15:02:09;19.20;99.90
31527;DHT22;18136;42.236;-73.040;2023-06-14T15:04:37;19.30;99.90
31527;DHT22;18136;42.236;-73.040;2023-06-14T15:07:03;19.30;99.90
31527;DHT22;18136;42.236;-73.040;2023-06-14T15:09:29;19.30;99.90
31527;DHT22;18136;42.236;-73.040;2023-06-14T15:11:55;19.20;99.90
31527;DHT22;18136;42.236;-73.040;2023-06-14T15:14:21;19.10;99.90
31527;DHT22;18136;42.236;-73.040;2023-06-14T15:16:47;19.00;99.90